Time;durP1;ratioP1;P1;durP2;ratioP2;P2;SDS_P1;SDS_P2;PMS_P1;PMS_P2;Temp;Humidity;BMP_temperature;BMP_pressure;BME280_temperature;BME280_humidity;BME280_pressure;Samples;Min_cycle;Max_cycle;Signal;HPM_P1;HPM_P2
2022/03/09 00:00:13;;;;;;;53.23;35.25;;;;;;;0.14;73.40;97119.11;1754885;82;21088;-83
2022/03/09 00:02:40;;;;;;;48.75;32.65;;;;;;;0.14;73.24;97121.20;1754418;82;21081;-84
2022/03/09 00:05:07;;;;;;;49.77;34.03;;;;;;;0.13;73.14;97123.41;1754919;82;21004;-84
2022/03/09 00:07:33;;;;;;;47.58;32.90;;;;;;;0.14;73.11;97120.39;1754655;82;21059;-84
2022/03/09 00:09:59;;;;;;;48.98;32.35;;;;;;;0.13;72.93;97120.03;1753166;80;21024;-85
2022/03/09 00:12:24;;;;;;;49.60;33.45;;;;;;;0.15;73.03;97116.91;1693881;84;21106;-84
2022/03/09 00:14:50;;;;;;;50.73;35.68;;;;;;;0.15;73.10;97113.89;1757678;81;20973;-84
2022/03/09 00:17:16;;;;;;;50.85;34.10;;;;;;;0.11;73.03;97112.47;1757172;81;21076;-84
2022/03/09 00:19:41;;;;;;;52.23;34.35;;;;;;;0.09;72.88;97114.30;1757483;82;21019;-84
2022/03/09 00:22:07;;;;;;;54.00;33.95;;;;;;;0.05;72.72;97105.20;1757558;82;21387;-84
2022/03/09 00:24:33;;;;;;;50.23;34.05;;;;;;;0.04;72.61;97107.86;1757504;82;21000;-84
2022/03/09 00:26:59;;;;;;;47.73;32.70;;;;;;;0.02;72.68;97107.15;1757583;82;21108;-83
2022/03/09 00:29:26;;;;;;;46.75;32.23;;;;;;;0.00;72.63;97107.25;1757569;82;21379;-84
2022/03/09 00:31:52;;;;;;;48.13;32.15;;;;;;;-0.05;72.57;97110.08;1757467;82;21001;-84
2022/03/09 00:34:18;;;;;;;48.48;32.88;;;;;;;-0.10;72.61;97112.58;1757558;82;21399;-84
2022/03/09 00:36:43;;;;;;;43.48;31.23;;;;;;;-0.14;72.59;97115.80;1757641;82;21021;-84
2022/03/09 00:39:09;;;;;;;45.20;33.10;;;;;;;-0.17;72.68;97112.59;1757380;82;20965;-84
2022/03/09 00:41:35;;;;;;;52.67;33.23;;;;;;;-0.20;72.65;97107.68;1757572;82;21051;-84
2022/03/09 00:44:01;;;;;;;53.00;33.80;;;;;;;-0.24;72.68;97103.69;1757501;82;21048;-84
2022/03/09 00:46:28;;;;;;;49.80;33.90;;;;;;;-0.27;72.70;97103.44;1757579;82;20973;-84
2022/03/09 00:48:54;;;;;;;49.75;33.25;;;;;;;-0.30;72.80;97101.08;1757573;82;21016;-84
2022/03/09 00:51:20;;;;;;;53.20;36.35;;;;;;;-0.32;72.88;97104.19;1757299;82;21056;-84
2022/03/09 00:53:46;;;;;;;53.83;36.03;;;;;;;-0.33;72.89;97103.80;1757510;82;20966;-84
2022/03/09 00:56:11;;;;;;;51.68;35.03;;;;;;;-0.32;73.00;97105.01;1757521;82;21032;-84
2022/03/09 00:58:37;;;;;;;55.75;37.88;;;;;;;-0.34;72.96;97103.44;1757369;82;20972;-84
2022/03/09 01:01:03;;;;;;;55.52;35.65;;;;;;;-0.36;72.86;97098.44;1757446;82;20988;-84
2022/03/09 01:03:29;;;;;;;51.48;36.80;;;;;;;-0.40;72.77;97091.89;1757579;82;20925;-84
2022/03/09 01:05:55;;;;;;;54.20;36.77;;;;;;;-0.44;72.67;97093.01;1757479;82;21033;-84
2022/03/09 01:08:21;;;;;;;53.00;36.42;;;;;;;-0.47;72.64;97093.20;1757537;82;21363;-84
2022/03/09 01:10:46;;;;;;;49.40;34.55;;;;;;;-0.48;72.67;97090.75;1757464;82;20981;-84
2022/03/09 01:13:12;;;;;;;50.52;34.60;;;;;;;-0.52;72.59;97090.56;1757440;82;21119;-84
2022/03/09 01:15:38;;;;;;;56.45;36.13;;;;;;;-0.56;72.62;97084.84;1755327;82;21079;-84
2022/03/09 01:18:04;;;;;;;41.88;31.05;;;;;;;-0.61;72.81;97078.75;1741174;81;21445;-84
2022/03/09 01:20:29;;;;;;;52.88;35.17;;;;;;;-0.62;72.83;97084.77;1741086;81;20978;-84
2022/03/09 01:22:55;;;;;;;52.05;36.08;;;;;;;-0.65;72.82;97074.75;1741030;81;21029;-83
2022/03/09 01:25:21;;;;;;;58.25;38.92;;;;;;;-0.67;72.90;97074.00;1740976;81;21020;-83
2022/03/09 01:27:47;;;;;;;56.48;38.58;;;;;;;-0.68;72.94;97071.55;1741267;82;20993;-84
2022/03/09 01:30:12;;;;;;;59.98;41.60;;;;;;;-0.69;73.05;97069.45;1740988;81;21391;-83
2022/03/09 01:32:38;;;;;;;56.88;38.30;;;;;;;-0.68;73.16;97070.28;1740979;81;21037;-83
2022/03/09 01:35:05;;;;;;;61.88;40.58;;;;;;;-0.69;73.26;97064.35;1741158;81;21002;-83
2022/03/09 01:37:31;;;;;;;57.10;40.20;;;;;;;-0.69;73.33;97068.19;1740925;82;21317;-83
2022/03/09 01:39:57;;;;;;;61.00;40.23;;;;;;;-0.67;73.37;97079.11;1741004;81;20989;-83
2022/03/09 01:42:23;;;;;;;53.30;37.23;;;;;;;-0.65;73.50;97072.20;1740831;82;21092;-83
2022/03/09 01:44:49;;;;;;;65.08;44.60;;;;;;;-0.63;73.65;97074.66;1740921;81;20998;-83
2022/03/09 01:47:16;;;;;;;53.52;38.67;;;;;;;-0.59;73.72;97072.27;1740728;82;21040;-83
2022/03/09 01:49:42;;;;;;;58.13;43.23;;;;;;;-0.54;73.93;97070.70;1740947;81;21080;-83
2022/03/09 01:52:08;;;;;;;61.45;41.50;;;;;;;-0.52;74.13;97067.58;1741057;81;20950;-83
2022/03/09 01:54:33;;;;;;;63.65;43.48;;;;;;;-0.50;74.18;97067.03;1738937;81;20962;-83
2022/03/09 01:57:00;;;;;;;57.98;40.48;;;;;;;-0.48;74.24;97062.21;1740974;81;21044;-83
2022/03/09 01:59:25;;;;;;;62.15;42.25;;;;;;;-0.47;74.08;97058.74;1741183;82;20966;-83
2022/03/09 02:01:51;;;;;;;63.25;40.98;;;;;;;-0.43;74.16;97055.53;1741066;82;20942;-83
2022/03/09 02:04:18;;;;;;;58.92;40.65;;;;;;;-0.43;74.25;97051.23;1741144;82;20966;-83
2022/03/09 02:06:43;;;;;;;57.58;39.05;;;;;;;-0.41;74.24;97049.86;1740818;81;21001;-82
2022/03/09 02:11:54;;;;;;;59.70;40.05;;;;;;;-0.34;74.31;97040.88;1740919;81;21085;-83
2022/03/09 02:14:33;;;;;;;58.00;41.15;;;;;;;-0.29;74.29;97045.72;1740421;82;21504;-84
2022/03/09 02:17:05;;;;;;;56.25;39.38;;;;;;;-0.50;74.35;97005.30;1750241;81;21502;-83
2022/03/09 02:19:31;;;;;;;65.25;45.40;;;;;;;-0.24;74.40;97041.94;1756290;82;21077;-83
2022/03/09 02:22:27;;;;;;;60.92;43.30;;;;;;;-0.23;74.25;97039.74;1757326;82;21120;-83
2022/03/09 02:24:52;;;;;;;58.87;42.00;;;;;;;-0.20;74.36;97046.38;1757443;82;21000;-83
2022/03/09 02:27:20;;;;;;;56.13;38.78;;;;;;;-0.19;74.16;97043.73;1757431;82;21040;-83
2022/03/09 02:29:50;;;;;;;58.15;38.95;;;;;;;-0.21;74.19;97043.02;1757420;82;20981;-84
2022/03/09 02:32:16;;;;;;;55.58;38.63;;;;;;;-0.21;74.23;97048.12;1757078;82;21001;-83
2022/03/09 02:34:42;;;;;;;52.15;38.17;;;;;;;-0.21;74.20;97045.56;1757241;82;20988;-83
2022/03/09 02:37:08;;;;;;;47.45;34.73;;;;;;;-0.19;74.00;97046.28;1757289;82;21364;-83
2022/03/09 02:39:34;;;;;;;52.43;36.68;;;;;;;-0.16;74.11;97046.11;1757224;82;21036;-83
2022/03/09 02:42:00;;;;;;;52.03;35.50;;;;;;;-0.13;74.12;97047.64;1757419;82;20989;-83
2022/03/09 02:44:26;;;;;;;52.95;36.17;;;;;;;-0.12;74.20;97051.37;1757266;82;21403;-83
2022/03/09 02:46:52;;;;;;;52.90;35.83;;;;;;;-0.10;74.31;97055.92;1757263;82;21017;-83
2022/03/09 02:49:19;;;;;;;52.05;37.42;;;;;;;-0.06;74.50;97056.53;1757353;82;21005;-83
2022/03/09 02:51:45;;;;;;;53.92;35.60;;;;;;;-0.01;74.60;97061.69;1757426;82;20950;-83
2022/03/09 02:54:11;;;;;;;52.93;36.93;;;;;;;-0.01;74.63;97065.52;1757080;80;20975;-83
2022/03/09 02:56:36;;;;;;;57.05;39.75;;;;;;;-0.03;74.52;97059.70;1755433;82;20992;-83
2022/03/09 02:59:02;;;;;;;60.10;41.90;;;;;;;-0.06;74.57;97061.18;1757200;82;21016;-83
2022/03/09 03:01:28;;;;;;;62.78;41.73;;;;;;;-0.09;74.49;97057.55;1757381;82;20965;-83
2022/03/09 03:03:53;;;;;;;59.40;43.33;;;;;;;-0.10;74.42;97053.83;1729620;82;21340;-83
2022/03/09 03:06:19;;;;;;;60.43;39.95;;;;;;;-0.07;74.42;97048.05;1757193;82;20965;-83
2022/03/09 03:08:45;;;;;;;60.52;42.98;;;;;;;-0.07;74.51;97044.67;1757370;82;20965;-83
2022/03/09 03:11:11;;;;;;;54.33;39.63;;;;;;;-0.05;74.34;97047.48;1757423;82;21116;-83
2022/03/09 03:13:38;;;;;;;59.05;42.62;;;;;;;-0.05;74.38;97042.38;1757286;82;21427;-83
2022/03/09 03:16:06;;;;;;;57.03;41.05;;;;;;;-0.03;74.72;97049.48;1757272;81;20977;-83
2022/03/09 03:18:32;;;;;;;60.10;40.83;;;;;;;0.00;74.64;97049.77;1757426;82;21033;-83
2022/03/09 03:20:57;;;;;;;59.75;40.88;;;;;;;-0.01;74.61;97050.66;1757443;82;21064;-83
2022/03/09 03:23:25;;;;;;;66.07;45.12;;;;;;;0.01;74.71;97043.73;1730196;82;21057;-83
2022/03/09 03:25:51;;;;;;;61.95;43.38;;;;;;;0.04;74.65;97047.36;1757456;82;20980;-83
2022/03/09 03:28:17;;;;;;;64.37;43.13;;;;;;;0.06;74.61;97034.48;1757526;82;21040;-83
2022/03/09 03:30:43;;;;;;;62.73;43.70;;;;;;;0.08;74.54;97031.36;1757560;82;21063;-82
2022/03/09 03:33:09;;;;;;;65.67;44.18;;;;;;;-0.09;74.76;97000.53;1757623;82;21002;-83
2022/03/09 03:35:35;;;;;;;66.15;44.73;;;;;;;0.12;74.68;97037.44;1757553;82;21055;-84
2022/03/09 03:38:01;;;;;;;62.38;42.98;;;;;;;0.12;74.63;97030.23;1757672;82;21413;-83
2022/03/09 03:40:26;;;;;;;66.60;45.50;;;;;;;0.13;74.47;97034.42;1757702;82;20961;-83
2022/03/09 03:42:52;;;;;;;61.95;44.63;;;;;;;0.11;74.22;97033.70;1757666;82;21048;-83
2022/03/09 03:45:18;;;;;;;67.40;45.40;;;;;;;0.12;74.34;97035.34;1757506;82;21048;-82
2022/03/09 03:47:43;;;;;;;65.22;46.33;;;;;;;0.14;74.51;97033.04;1757523;82;21020;-83
2022/03/09 03:50:10;;;;;;;62.65;43.45;;;;;;;0.17;74.48;97044.36;1730012;82;21001;-83
2022/03/09 03:52:36;;;;;;;56.23;39.58;;;;;;;;;;1757421;82;20992;-83
2022/03/09 03:55:03;;;;;;;56.50;40.08;;;;;;;0.21;74.34;97044.97;1757586;82;20973;-83
2022/03/09 03:57:28;;;;;;;62.08;42.08;;;;;;;0.24;74.29;97048.59;1757420;82;20976;-83
2022/03/09 03:59:54;;;;;;;66.97;44.95;;;;;;;0.26;74.40;97042.45;1757590;82;20992;-83
2022/03/09 04:02:20;;;;;;;73.85;48.10;;;;;;;0.27;74.49;97049.67;1757588;82;21486;-83
2022/03/09 04:04:45;;;;;;;86.42;61.23;;;;;;;0.25;74.87;97051.05;1757267;82;21076;-83
2022/03/09 04:07:11;;;;;;;79.65;52.88;;;;;;;0.27;74.97;97048.39;1757396;82;21073;-83
2022/03/09 04:09:37;;;;;;;86.85;57.13;;;;;;;0.27;74.98;97044.09;1757567;82;21008;-83
2022/03/09 04:12:04;;;;;;;79.47;53.42;;;;;;;0.25;74.87;97052.78;1757443;82;21061;-83
2022/03/09 04:14:29;;;;;;;83.85;57.15;;;;;;;0.24;75.35;97058.81;1757337;82;21115;-83
2022/03/09 04:16:55;;;;;;;82.00;54.40;;;;;;;0.27;75.09;97067.09;1751462;82;21133;-82
2022/03/09 04:19:21;;;;;;;80.92;55.25;;;;;;;0.31;75.11;97063.88;1741158;81;21073;-83
2022/03/09 04:21:47;;;;;;;81.95;50.60;;;;;;;0.32;75.05;97065.97;1741045;81;21062;-83
2022/03/09 04:24:12;;;;;;;76.02;53.25;;;;;;;0.32;74.65;97066.78;1741190;81;21467;-83
2022/03/09 04:26:38;;;;;;;76.82;51.20;;;;;;;0.33;74.69;97058.23;1741168;81;21056;-83
2022/03/09 04:29:04;;;;;;;74.80;52.62;;;;;;;0.30;74.38;97060.95;1741045;81;21120;-83
2022/03/09 04:31:29;;;;;;;77.85;50.63;;;;;;;0.32;74.42;97062.13;1741260;81;21032;-83
2022/03/09 04:33:55;;;;;;;73.62;50.95;;;;;;;0.35;74.17;97053.01;1741002;82;21032;-83
2022/03/09 04:36:21;;;;;;;71.22;51.77;;;;;;;0.40;74.09;97059.90;1741048;82;20988;-83
2022/03/09 04:38:47;;;;;;;77.03;54.98;;;;;;;0.41;73.88;97070.02;1741081;81;20965;-83
2022/03/09 04:41:12;;;;;;;72.10;49.58;;;;;;;0.39;73.95;97072.33;1741274;81;20985;-83
2022/03/09 04:43:38;;;;;;;71.75;49.98;;;;;;;0.36;74.21;97072.53;1740849;81;21471;-83
2022/03/09 04:46:04;;;;;;;65.28;45.80;;;;;;;0.34;74.46;97069.27;1740885;81;20958;-83
2022/03/09 04:48:30;;;;;;;65.80;45.60;;;;;;;0.32;74.60;97065.97;1740676;81;20910;-83
2022/03/09 04:50:56;;;;;;;57.73;39.40;;;;;;;0.26;74.20;97079.52;1740908;82;20970;-83
2022/03/09 04:53:22;;;;;;;60.75;37.63;;;;;;;0.22;74.14;97082.39;1740998;82;21029;-83
2022/03/09 04:55:48;;;;;;;59.75;42.50;;;;;;;0.23;74.33;97087.39;1741275;82;20952;-83
2022/03/09 04:58:13;;;;;;;54.53;37.33;;;;;;;0.25;74.60;97085.55;1741041;82;21380;-83
2022/03/09 05:00:39;;;;;;;54.53;36.17;;;;;;;0.23;74.19;97084.02;1740937;82;21017;-83
2022/03/09 05:03:05;;;;;;;44.45;32.73;;;;;;;0.19;74.25;97080.86;1740939;82;21009;-83
2022/03/09 05:05:31;;;;;;;55.92;37.53;;;;;;;0.13;74.02;97082.52;1741077;82;21381;-83
2022/03/09 05:07:56;;;;;;;51.08;33.78;;;;;;;0.09;74.12;97093.05;1741012;82;21001;-83
2022/03/09 05:10:22;;;;;;;47.83;31.00;;;;;;;0.11;74.26;97095.86;1741395;82;21064;-83
2022/03/09 05:12:48;;;;;;;52.55;35.03;;;;;;;0.11;74.35;97095.04;1741200;82;21001;-83
2022/03/09 05:15:13;;;;;;;54.23;35.28;;;;;;;0.10;74.57;97097.23;1741206;82;20966;-83
2022/03/09 05:17:42;;;;;;;51.77;33.30;;;;;;;0.14;74.73;97097.39;1740957;82;21049;-83
2022/03/09 05:20:09;;;;;;;54.05;34.38;;;;;;;-0.10;74.79;97052.09;1740576;82;21005;-83
2022/03/09 05:22:35;;;;;;;52.23;35.88;;;;;;;0.17;75.03;97090.37;1740906;82;21038;-83
2022/03/09 05:25:01;;;;;;;56.88;36.30;;;;;;;0.17;74.87;97089.55;1740939;82;21001;-82
2022/03/09 05:27:27;;;;;;;52.35;36.15;;;;;;;0.16;74.83;97089.16;1741231;81;20970;-83
2022/03/09 05:29:53;;;;;;;59.63;38.58;;;;;;;0.20;75.10;97096.55;1741119;82;21005;-83
2022/03/09 05:32:19;;;;;;;55.43;36.68;;;;;;;0.25;75.53;97093.69;1740948;82;21025;-83
2022/03/09 05:34:46;;;;;;;54.60;37.65;;;;;;;0.26;75.27;97095.31;1741129;82;21321;-83
2022/03/09 05:37:13;;;;;;;69.30;46.92;;;;;;;0.27;75.25;97096.48;1741113;82;21017;-83
2022/03/09 05:39:38;;;;;;;58.42;40.10;;;;;;;0.26;74.91;97096.59;1741033;82;21360;-83
2022/03/09 05:42:05;;;;;;;50.23;34.40;;;;;;;0.27;75.28;97095.21;1740936;82;20974;-83
2022/03/09 05:44:30;;;;;;;58.40;39.70;;;;;;;0.31;75.29;97095.83;1740930;82;21021;-83
2022/03/09 05:46:57;;;;;;;64.53;42.43;;;;;;;0.33;75.46;97097.84;1740038;81;21014;-83
2022/03/09 05:49:23;;;;;;;59.90;38.95;;;;;;;0.36;75.44;97101.47;1740785;82;21371;-83
2022/03/09 05:51:49;;;;;;;61.28;41.88;;;;;;;0.41;75.56;97101.98;1740890;82;21100;-83
2022/03/09 05:54:15;;;;;;;67.30;45.12;;;;;;;0.41;75.49;97099.88;1740829;82;21964;-83
2022/03/09 05:56:41;;;;;;;58.55;40.88;;;;;;;0.44;75.46;97103.05;1740916;81;21065;-83
2022/03/09 05:59:07;;;;;;;62.53;45.03;;;;;;;0.45;75.53;97100.84;1741041;81;21107;-83
2022/03/09 06:01:33;;;;;;;62.83;43.33;;;;;;;0.48;75.20;97101.92;1740977;81;21439;-83
2022/03/09 06:04:00;;;;;;;64.32;44.38;;;;;;;0.50;75.17;97100.56;1740890;81;21070;-83
2022/03/09 06:06:26;;;;;;;58.05;44.42;;;;;;;0.50;75.26;97096.73;1741103;82;21100;-83
2022/03/09 06:08:52;;;;;;;65.65;45.67;;;;;;;0.53;75.04;97100.36;1740947;81;21060;-83
2022/03/09 06:11:18;;;;;;;60.90;42.80;;;;;;;0.52;75.20;97099.54;1741061;82;21092;-82
2022/03/09 06:13:44;;;;;;;64.80;45.73;;;;;;;0.52;74.83;97102.56;1740935;82;21132;-83
2022/03/09 06:16:09;;;;;;;55.48;39.98;;;;;;;0.56;74.83;97097.59;1741230;81;21416;-83
2022/03/09 06:18:35;;;;;;;60.80;43.92;;;;;;;0.57;74.75;97096.67;1754453;81;21084;-83
2022/03/09 06:21:01;;;;;;;73.90;50.20;;;;;;;0.59;74.95;97105.05;1757102;82;20973;-83
2022/03/09 06:23:26;;;;;;;59.93;43.75;;;;;;;0.59;74.99;97102.49;1755773;82;20973;-83
2022/03/09 06:25:52;;;;;;;57.23;42.15;;;;;;;0.62;74.95;97101.47;1755965;82;21376;-83
2022/03/09 06:28:18;;;;;;;64.35;45.33;;;;;;;0.67;75.15;97110.48;1755795;82;20988;-83
2022/03/09 06:30:44;;;;;;;58.08;42.43;;;;;;;0.71;75.07;97108.53;1728141;82;21017;-83
2022/03/09 06:33:10;;;;;;;59.18;44.98;;;;;;;0.70;74.86;97106.44;1755976;82;20958;-83
2022/03/09 06:35:36;;;;;;;59.53;41.25;;;;;;;0.72;74.71;97107.15;1755682;82;20989;-83
2022/03/09 06:38:01;;;;;;;55.52;38.40;;;;;;;0.73;74.58;97109.25;1755780;82;21011;-83
2022/03/09 06:40:27;;;;;;;48.68;36.73;;;;;;;0.54;74.58;97070.84;1755703;82;21012;-83
2022/03/09 06:42:53;;;;;;;50.08;40.85;;;;;;;0.73;74.60;97109.25;1755947;82;20992;-83
2022/03/09 06:45:19;;;;;;;58.42;42.50;;;;;;;0.75;75.09;97113.33;1755592;82;21467;-83
2022/03/09 06:47:45;;;;;;;47.62;34.05;;;;;;;0.80;75.11;97113.83;1755529;82;20985;-83
2022/03/09 06:50:11;;;;;;;48.60;36.48;;;;;;;0.84;74.82;97106.33;1755520;82;21108;-83
2022/03/09 06:52:37;;;;;;;52.35;34.75;;;;;;;0.84;74.74;97105.52;1755929;82;21041;-83
2022/03/09 06:55:07;;;;;;;51.13;39.63;;;;;;;0.63;74.89;97076.25;1755741;82;21356;-83
2022/03/09 06:57:32;;;;;;;50.30;36.42;;;;;;;0.83;74.72;97114.11;1755775;82;21384;-83
2022/03/09 06:59:58;;;;;;;43.45;34.48;;;;;;;0.87;74.91;97111.23;1755687;82;21068;-83
2022/03/09 07:02:24;;;;;;;42.95;33.40;;;;;;;0.90;74.94;97115.32;1755878;82;20973;-84
2022/03/09 07:04:49;;;;;;;49.98;38.55;;;;;;;0.88;74.75;97109.03;1755946;82;21037;-83
2022/03/09 07:07:15;;;;;;;43.92;32.30;;;;;;;0.95;74.97;97113.26;1755902;82;21434;-83
2022/03/09 07:09:41;;;;;;;52.00;39.08;;;;;;;1.01;75.07;97110.30;1755796;82;21056;-83
2022/03/09 07:12:08;;;;;;;45.95;33.58;;;;;;;1.04;74.99;97108.80;1755902;82;21053;-83
2022/03/09 07:14:34;;;;;;;53.42;41.90;;;;;;;1.07;75.15;97105.22;1755739;82;21100;-83
2022/03/09 07:16:59;;;;;;;52.43;37.98;;;;;;;1.06;74.81;97111.26;1755891;81;20996;-83
2022/03/09 07:19:25;;;;;;;56.23;43.15;;;;;;;1.09;74.93;97108.48;1728393;82;20985;-83
2022/03/09 07:21:53;;;;;;;50.67;37.90;;;;;;;1.09;75.03;97113.60;1755861;82;21037;-83
2022/03/09 07:24:19;;;;;;;50.15;36.38;;;;;;;1.12;75.41;97110.83;1755575;82;21081;-83
2022/03/09 07:26:45;;;;;;;50.03;37.63;;;;;;;1.15;75.24;97112.73;1755826;82;21057;-83
2022/03/09 07:29:13;;;;;;;52.33;35.85;;;;;;;1.15;75.10;97110.64;1755933;82;21044;-83
2022/03/09 07:31:39;;;;;;;52.25;41.40;;;;;;;1.15;74.87;97111.46;1755746;82;21012;-83
2022/03/09 07:34:05;;;;;;;53.02;40.00;;;;;;;1.18;75.19;97106.13;1755629;82;20989;-83
2022/03/09 07:36:31;;;;;;;55.25;46.25;;;;;;;1.24;75.20;97102.31;1755240;82;21024;-83
2022/03/09 07:38:58;;;;;;;51.45;37.35;;;;;;;1.29;75.26;97104.54;1755382;82;21423;-83
2022/03/09 07:41:24;;;;;;;46.70;35.85;;;;;;;1.31;74.92;97097.59;1755970;82;20985;-83
2022/03/09 07:43:49;;;;;;;53.58;39.25;;;;;;;1.34;75.30;97097.37;1755802;82;21115;-83
2022/03/09 07:46:15;;;;;;;45.92;33.45;;;;;;;1.39;75.12;97096.13;1755639;80;21049;-83
2022/03/09 07:48:41;;;;;;;52.70;37.40;;;;;;;1.45;75.23;97098.23;1757244;82;21364;-83
2022/03/09 07:51:06;;;;;;;52.00;36.17;;;;;;;1.49;75.04;97102.71;1757521;82;20984;-83
2022/03/09 07:53:32;;;;;;;45.67;33.45;;;;;;;1.55;74.62;97094.58;1757316;82;20984;-83
2022/03/09 07:55:58;;;;;;;43.28;32.80;;;;;;;1.56;73.98;97100.06;1757284;82;21004;-83
2022/03/09 07:58:24;;;;;;;44.38;30.15;;;;;;;1.58;74.13;97096.10;1757411;82;20957;-83
2022/03/09 08:00:50;;;;;;;59.27;39.50;;;;;;;1.63;73.94;97092.77;1757447;82;20957;-83
2022/03/09 08:03:16;;;;;;;69.80;43.50;;;;;;;1.41;73.71;97052.48;1757151;82;21000;-83
2022/03/09 08:05:44;;;;;;;72.53;46.02;;;;;;;1.74;73.85;97091.52;1757341;82;21047;-83
2022/03/09 08:08:09;;;;;;;106.67;68.37;;;;;;;1.85;73.79;97097.17;1757496;80;21364;-83
2022/03/09 08:10:35;;;;;;;148.20;94.42;;;;;;;1.93;73.47;97094.39;1757524;82;21064;-84
2022/03/09 08:13:00;;;;;;;96.28;66.70;;;;;;;2.00;73.31;97100.73;1757502;82;21020;-83
2022/03/09 08:15:26;;;;;;;60.30;44.08;;;;;;;2.05;73.13;97107.61;1757612;82;21024;-84
2022/03/09 08:17:52;;;;;;;74.92;53.98;;;;;;;2.07;72.75;97107.03;1751970;82;21898;-83
2022/03/09 08:20:18;;;;;;;82.90;59.15;;;;;;;2.10;72.69;97101.68;1741144;82;21432;-83
2022/03/09 08:22:43;;;;;;;58.68;44.18;;;;;;;2.12;72.49;97104.63;1741166;82;21658;-83
2022/03/09 08:25:09;;;;;;;57.30;46.70;;;;;;;2.09;72.26;97108.20;1741220;82;20959;-84
2022/03/09 08:27:35;;;;;;;47.15;37.13;;;;;;;2.08;72.25;97111.23;1741122;82;20993;-83
2022/03/09 08:30:02;;;;;;;59.23;43.83;;;;;;;2.08;72.16;97113.80;1741212;82;20986;-83
2022/03/09 08:32:28;;;;;;;60.95;43.92;;;;;;;2.12;72.19;97111.85;1740989;82;21002;-83
2022/03/09 08:34:54;;;;;;;53.33;38.73;;;;;;;2.19;72.05;97106.61;1741045;82;20973;-83
2022/03/09 08:37:21;;;;;;;42.93;31.12;;;;;;;2.27;72.23;97110.70;1740798;82;21348;-83
2022/03/09 08:39:48;;;;;;;39.75;27.30;;;;;;;2.35;71.64;97121.70;1740961;82;20997;-83
2022/03/09 08:42:16;;;;;;;35.65;26.45;;;;;;;2.36;71.69;97117.73;1741128;82;21085;-83
2022/03/09 08:44:41;;;;;;;37.60;26.15;;;;;;;2.40;71.33;97110.63;1720301;82;21124;-83
2022/03/09 08:47:07;;;;;;;36.63;25.05;;;;;;;2.48;71.53;97124.19;1737989;81;21026;-83
2022/03/09 08:49:33;;;;;;;36.58;26.30;;;;;;;2.55;71.16;97129.20;1691557;84;22079;-83
2022/03/09 08:51:59;;;;;;;35.43;25.45;;;;;;;2.59;70.81;97124.19;1711716;84;21057;-84
2022/03/09 08:54:27;;;;;;;42.55;27.32;;;;;;;2.68;70.86;97123.05;1711542;84;21072;-84
2022/03/09 08:56:52;;;;;;;36.28;24.00;;;;;;;2.79;70.75;97117.12;1711635;84;21037;-83
2022/03/09 08:59:18;;;;;;;33.75;24.35;;;;;;;2.87;70.19;97120.37;1711485;83;21049;-83
2022/03/09 09:01:44;;;;;;;38.30;25.57;;;;;;;2.96;70.19;97124.83;1711483;84;21057;-83
2022/03/09 09:04:10;;;;;;;39.13;26.90;;;;;;;3.06;70.09;97110.80;1711660;83;21090;-83
2022/03/09 09:06:35;;;;;;;43.52;29.25;;;;;;;3.16;69.88;97112.56;1711534;84;21424;-83
2022/03/09 09:09:01;;;;;;;37.28;26.48;;;;;;;3.27;70.07;97116.89;1711662;84;21104;-83
2022/03/09 09:11:27;;;;;;;38.40;26.15;;;;;;;3.36;69.63;97111.02;1711550;84;21136;-84
2022/03/09 09:13:52;;;;;;;41.28;28.23;;;;;;;3.43;69.11;97106.23;1711834;83;20987;-84
2022/03/09 09:16:18;;;;;;;40.35;27.45;;;;;;;3.49;69.20;97107.84;1691087;84;21099;-84
2022/03/09 09:18:44;;;;;;;36.00;24.37;;;;;;;3.58;69.08;97106.33;1711374;83;21017;-83
2022/03/09 09:21:10;;;;;;;37.67;25.85;;;;;;;3.61;68.80;97111.22;1711733;84;21024;-83
2022/03/09 09:23:38;;;;;;;37.20;26.42;;;;;;;3.71;68.69;97109.53;1711477;84;21463;-83
2022/03/09 09:26:03;;;;;;;42.00;28.02;;;;;;;3.76;68.47;97110.02;1711320;84;21120;-84
2022/03/09 09:28:29;;;;;;;34.45;24.52;;;;;;;3.86;68.37;97104.94;1711602;83;21471;-84
2022/03/09 09:30:55;;;;;;;41.68;29.05;;;;;;;3.87;67.51;97100.14;1711534;84;21092;-83
2022/03/09 09:33:20;;;;;;;41.40;26.17;;;;;;;3.84;67.41;97103.77;1711540;83;21040;-83
2022/03/09 09:35:48;;;;;;;41.50;27.20;;;;;;;3.86;67.84;97105.75;1711332;84;20982;-83
2022/03/09 09:38:14;;;;;;;38.73;27.17;;;;;;;3.96;67.68;97099.42;1711628;84;21024;-84
2022/03/09 09:40:41;;;;;;;44.05;31.33;;;;;;;3.99;67.42;97099.64;1711519;84;21542;-84
2022/03/09 09:43:09;;;;;;;40.83;29.75;;;;;;;4.04;67.44;97103.94;1711716;83;21001;-84
2022/03/09 09:45:36;;;;;;;34.78;25.40;;;;;;;4.06;67.81;97099.00;1711183;84;21084;-84
2022/03/09 09:48:03;;;;;;;41.08;28.80;;;;;;;4.13;67.31;97099.34;1738579;81;20961;-84
2022/03/09 09:50:30;;;;;;;36.83;26.65;;;;;;;4.22;67.56;97095.54;1740925;82;21456;-84
2022/03/09 09:52:55;;;;;;;37.90;26.97;;;;;;;4.31;67.33;97095.75;1741080;81;20985;-84
2022/03/09 09:55:26;;;;;;;38.50;28.38;;;;;;;4.32;67.12;97098.19;1741275;81;20954;-84
2022/03/09 09:57:52;;;;;;;41.68;26.68;;;;;;;4.40;67.36;97097.11;1741256;82;21495;-84
2022/03/09 10:00:18;;;;;;;40.28;27.75;;;;;;;4.41;67.05;97083.30;1720188;82;21024;-84
2022/03/09 10:02:44;;;;;;;37.33;26.48;;;;;;;4.55;66.70;97091.62;1741055;82;20974;-84
2022/03/09 10:05:15;;;;;;;39.78;26.73;;;;;;;4.53;66.09;97086.59;1741177;81;20962;-84
2022/03/09 10:08:08;;;;;;;42.27;29.23;;;;;;;4.56;66.61;97091.52;1741012;81;21000;-84
2022/03/09 10:10:59;;;;;;;39.80;26.77;;;;;;;4.59;66.32;97096.87;1740992;81;21349;-84
2022/03/09 10:13:28;;;;;;;35.68;25.43;;;;;;;4.61;66.78;97089.37;1741095;82;21440;-84
2022/03/09 10:16:21;;;;;;;38.05;25.20;;;;;;;4.59;65.79;97093.83;1740862;81;21167;-84
2022/03/09 10:18:56;;;;;;;35.25;24.43;;;;;;;4.51;65.48;97084.63;1748973;81;20974;-84
2022/03/09 10:21:26;;;;;;;42.43;30.23;;;;;;;4.48;65.52;97095.99;1757625;82;21004;-84
2022/03/09 10:24:03;;;;;;;41.73;27.07;;;;;;;4.44;65.49;97091.23;1757499;82;21028;-85
2022/03/09 10:26:40;;;;;;;39.80;28.32;;;;;;;4.46;66.12;97082.44;1757770;82;20949;-85
2022/03/09 10:29:09;;;;;;;37.98;27.45;;;;;;;4.51;65.95;97073.86;1727199;82;20969;-85
2022/03/09 10:31:47;;;;;;;39.38;27.40;;;;;;;4.57;66.29;97063.55;1757401;82;21081;-85
2022/03/09 10:34:22;;;;;;;39.30;27.17;;;;;;;4.64;65.88;97066.41;1757387;82;21415;-84
2022/03/09 10:36:59;;;;;;;39.23;25.82;;;;;;;4.68;65.51;97055.72;1757455;82;20953;-84
2022/03/09 10:39:37;;;;;;;37.50;26.65;;;;;;;4.77;65.25;97056.73;1757409;82;21093;-84
2022/03/09 10:42:05;;;;;;;34.83;24.18;;;;;;;4.84;64.94;97055.25;1757347;82;21004;-84
2022/03/09 10:44:44;;;;;;;26.33;19.60;;;;;;;4.84;64.15;97051.39;1757384;82;21001;-84
2022/03/09 10:47:09;;;;;;;25.88;17.48;;;;;;;4.89;63.02;97051.02;1757323;82;20934;-83
2022/03/09 10:49:35;;;;;;;29.05;19.62;;;;;;;4.93;63.03;97051.09;1757382;82;20997;-83
2022/03/09 10:52:01;;;;;;;30.25;20.02;;;;;;;4.97;63.27;97053.75;1757315;82;21016;-83
2022/03/09 10:54:29;;;;;;;34.40;21.30;;;;;;;5.00;62.33;97054.77;1757403;82;20980;-84
2022/03/09 10:57:11;;;;;;;33.45;24.25;;;;;;;5.01;63.18;97051.25;1757349;82;21052;-84
2022/03/09 10:59:52;;;;;;;32.78;21.75;;;;;;;5.04;62.52;97056.98;1757456;82;21000;-84
2022/03/09 11:02:20;;;;;;;34.67;22.65;;;;;;;4.99;62.36;97044.13;1757570;82;20977;-84
2022/03/09 11:05:08;;;;;;;36.10;24.07;;;;;;;5.06;62.18;97048.64;1757262;82;20985;-83
2022/03/09 11:07:35;;;;;;;36.30;23.95;;;;;;;5.09;62.56;97048.84;1757575;82;22162;-83
2022/03/09 11:10:01;;;;;;;32.30;21.12;;;;;;;5.12;62.25;97048.58;1757461;82;20997;-84
2022/03/09 11:12:28;;;;;;;35.92;23.27;;;;;;;5.08;61.24;97054.47;1757227;80;21404;-84
2022/03/09 11:14:54;;;;;;;27.15;20.72;;;;;;;5.07;61.96;97058.00;1757227;82;21107;-84
2022/03/09 11:17:22;;;;;;;32.53;23.12;;;;;;;5.05;60.53;97058.61;1757270;82;21414;-84
2022/03/09 11:19:48;;;;;;;32.73;25.75;;;;;;;5.01;61.67;97061.08;1757411;82;20977;-84
2022/03/09 11:22:14;;;;;;;35.03;25.35;;;;;;;5.04;61.78;97053.11;1757364;82;21391;-84
2022/03/09 11:24:40;;;;;;;35.10;22.62;;;;;;;5.09;62.08;97061.25;1757704;82;21109;-84